sensor_id;sensor_type;location;lat;lon;timestamp;pressure;altitude;pressure_sealevel;temperature;humidity
70971;BME280;58632;51.718;19.446;2024-02-21T00:02:19;100089.61;;;5.60;100.00
70971;BME280;58632;51.718;19.446;2024-02-21T00:04:45;100091.95;;;5.61;100.00
70971;BME280;58632;51.718;19.446;2024-02-21T00:07:10;100094.23;;;5.61;100.00
70971;BME280;58632;51.718;19.446;2024-02-21T00:09:36;100098.39;;;5.63;100.00
70971;BME280;58632;51.718;19.446;2024-02-21T00:12:04;100096.21;;;5.66;100.00
70971;BME280;58632;51.718;19.446;2024-02-21T00:14:30;100097.29;;;5.66;100.00
70971;BME280;58632;51.718;19.446;2024-02-21T00:16:55;100092.64;;;5.62;100.00
70971;BME280;58632;51.718;19.446;2024-02-21T00:19:21;100087.05;;;5.60;100.00
70971;BME280;58632;51.718;19.446;2024-02-21T00:21:52;100088.32;;;5.59;100.00
70971;BME280;58632;51.718;19.446;2024-02-21T00:24:17;100086.88;;;5.55;100.00
70971;BME280;58632;51.718;19.446;2024-02-21T00:26:43;100087.91;;;5.47;100.00
70971;BME280;58632;51.718;19.446;2024-02-21T00:29:08;100085.13;;;5.39;100.00
70971;BME280;58632;51.718;19.446;2024-02-21T00:31:33;100082.20;;;5.36;100.00
70971;BME280;58632;51.718;19.446;2024-02-21T00:33:59;100084.80;;;5.36;100.00
70971;BME280;58632;51.718;19.446;2024-02-21T00:36:24;100079.52;;;5.39;100.00
70971;BME280;58632;51.718;19.446;2024-02-21T00:38:50;100075.55;;;5.41;100.00
70971;BME280;58632;51.718;19.446;2024-02-21T00:41:15;100077.82;;;5.44;100.00
70971;BME280;58632;51.718;19.446;2024-02-21T00:43:41;100072.09;;;5.47;100.00
70971;BME280;58632;51.718;19.446;2024-02-21T00:46:06;100068.38;;;5.50;100.00
70971;BME280;58632;51.718;19.446;2024-02-21T00:48:32;100069.77;;;5.54;100.00
70971;BME280;58632;51.718;19.446;2024-02-21T00:50:59;100071.29;;;5.54;100.00
70971;BME280;58632;51.718;19.446;2024-02-21T00:53:24;100072.36;;;5.56;100.00
70971;BME280;58632;51.718;19.446;2024-02-21T00:55:49;100071.14;;;5.59;100.00
70971;BME280;58632;51.718;19.446;2024-02-21T00:58:15;100066.52;;;5.60;100.00
70971;BME280;58632;51.718;19.446;2024-02-21T01:00:40;100064.77;;;5.62;100.00
70971;BME280;58632;51.718;19.446;2024-02-21T01:03:05;100063.66;;;5.64;100.00
70971;BME280;58632;51.718;19.446;2024-02-21T01:05:31;100064.36;;;5.66;100.00
70971;BME280;58632;51.718;19.446;2024-02-21T01:07:56;100064.27;;;5.70;100.00
70971;BME280;58632;51.718;19.446;2024-02-21T01:10:22;100056.15;;;5.74;100.00
70971;BME280;58632;51.718;19.446;2024-02-21T01:12:48;100053.58;;;5.77;100.00
70971;BME280;58632;51.718;19.446;2024-02-21T01:15:13;100050.80;;;5.77;100.00
70971;BME280;58632;51.718;19.446;2024-02-21T01:17:39;100054.86;;;5.74;100.00
70971;BME280;58632;51.718;19.446;2024-02-21T01:20:08;100050.34;;;5.74;100.00
70971;BME280;58632;51.718;19.446;2024-02-21T01:22:36;100051.22;;;5.73;100.00
70971;BME280;58632;51.718;19.446;2024-02-21T01:25:02;100047.49;;;5.70;100.00
70971;BME280;58632;51.718;19.446;2024-02-21T01:27:29;100046.20;;;5.67;100.00
70971;BME280;58632;51.718;19.446;2024-02-21T01:29:55;100047.04;;;5.64;100.00
70971;BME280;58632;51.718;19.446;2024-02-21T01:32:21;100044.77;;;5.69;100.00
70971;BME280;58632;51.718;19.446;2024-02-21T01:34:47;100044.27;;;5.71;100.00
70971;BME280;58632;51.718;19.446;2024-02-21T01:37:12;100040.23;;;5.74;100.00
70971;BME280;58632;51.718;19.446;2024-02-21T01:39:37;100038.56;;;5.79;100.00
70971;BME280;58632;51.718;19.446;2024-02-21T01:42:03;100033.50;;;5.80;100.00
70971;BME280;58632;51.718;19.446;2024-02-21T01:44:31;100031.44;;;5.79;100.00
70971;BME280;58632;51.718;19.446;2024-02-21T01:46:56;100024.63;;;5.80;100.00
70971;BME280;58632;51.718;19.446;2024-02-21T01:49:22;100023.29;;;5.80;100.00
70971;BME280;58632;51.718;19.446;2024-02-21T01:51:47;100018.01;;;5.79;100.00
70971;BME280;58632;51.718;19.446;2024-02-21T01:54:16;100020.23;;;5.79;100.00
70971;BME280;58632;51.718;19.446;2024-02-21T01:56:42;100021.60;;;5.80;100.00
70971;BME280;58632;51.718;19.446;2024-02-21T01:59:08;100023.40;;;5.78;100.00
70971;BME280;58632;51.718;19.446;2024-02-21T02:01:36;100023.59;;;5.81;100.00
70971;BME280;58632;51.718;19.446;2024-02-21T02:04:01;100020.54;;;5.82;100.00
70971;BME280;58632;51.718;19.446;2024-02-21T02:06:27;100021.40;;;5.84;100.00
70971;BME280;58632;51.718;19.446;2024-02-21T02:08:53;100016.98;;;5.86;100.00
70971;BME280;58632;51.718;19.446;2024-02-21T02:11:18;100022.13;;;5.87;100.00
70971;BME280;58632;51.718;19.446;2024-02-21T02:13:44;100015.15;;;5.85;100.00
70971;BME280;58632;51.718;19.446;2024-02-21T02:16:09;100016.88;;;5.87;100.00
70971;BME280;58632;51.718;19.446;2024-02-21T02:18:37;100017.77;;;5.84;100.00
70971;BME280;58632;51.718;19.446;2024-02-21T02:21:04;100015.83;;;5.85;100.00
70971;BME280;58632;51.718;19.446;2024-02-21T02:23:30;100012.45;;;5.88;100.00
70971;BME280;58632;51.718;19.446;2024-02-21T02:25:59;100007.63;;;5.91;100.00
70971;BME280;58632;51.718;19.446;2024-02-21T02:28:26;100007.80;;;5.91;100.00
70971;BME280;58632;51.718;19.446;2024-02-21T02:30:54;100003.84;;;5.93;100.00
70971;BME280;58632;51.718;19.446;2024-02-21T02:33:19;100000.89;;;5.93;100.00
70971;BME280;58632;51.718;19.446;2024-02-21T02:35:45;99996.33;;;5.94;100.00
70971;BME280;58632;51.718;19.446;2024-02-21T02:38:10;99995.56;;;5.95;100.00
70971;BME280;58632;51.718;19.446;2024-02-21T02:40:37;99996.48;;;5.96;100.00
70971;BME280;58632;51.718;19.446;2024-02-21T02:43:03;99992.79;;;5.92;100.00
70971;BME280;58632;51.718;19.446;2024-02-21T02:45:28;99994.69;;;5.87;100.00
70971;BME280;58632;51.718;19.446;2024-02-21T02:47:54;99992.73;;;5.82;100.00
70971;BME280;58632;51.718;19.446;2024-02-21T02:50:20;99986.42;;;5.82;100.00
70971;BME280;58632;51.718;19.446;2024-02-21T02:52:45;99980.67;;;5.81;100.00
70971;BME280;58632;51.718;19.446;2024-02-21T02:55:11;99980.84;;;5.80;100.00
70971;BME280;58632;51.718;19.446;2024-02-21T02:57:36;99975.41;;;5.80;100.00
70971;BME280;58632;51.718;19.446;2024-02-21T03:00:02;99976.70;;;5.81;100.00
70971;BME280;58632;51.718;19.446;2024-02-21T03:02:28;99975.30;;;5.78;100.00
70971;BME280;58632;51.718;19.446;2024-02-21T03:04:53;99977.08;;;5.80;100.00
70971;BME280;58632;51.718;19.446;2024-02-21T03:07:19;99971.87;;;5.85;100.00
70971;BME280;58632;51.718;19.446;2024-02-21T03:09:44;99973.66;;;5.85;100.00
70971;BME280;58632;51.718;19.446;2024-02-21T03:12:10;99974.25;;;5.81;100.00
70971;BME280;58632;51.718;19.446;2024-02-21T03:14:36;99977.23;;;5.82;100.00
70971;BME280;58632;51.718;19.446;2024-02-21T03:17:02;99977.91;;;5.79;100.00
70971;BME280;58632;51.718;19.446;2024-02-21T03:19:27;99977.98;;;5.77;100.00
70971;BME280;58632;51.718;19.446;2024-02-21T03:21:56;99979.06;;;5.78;100.00
70971;BME280;58632;51.718;19.446;2024-02-21T03:24:21;99979.61;;;5.78;100.00
70971;BME280;58632;51.718;19.446;2024-02-21T03:26:47;99980.06;;;5.80;100.00
70971;BME280;58632;51.718;19.446;2024-02-21T03:29:14;99980.39;;;5.80;100.00
70971;BME280;58632;51.718;19.446;2024-02-21T03:31:39;99976.31;;;5.80;100.00
70971;BME280;58632;51.718;19.446;2024-02-21T03:34:05;99975.64;;;5.83;100.00
70971;BME280;58632;51.718;19.446;2024-02-21T03:36:30;99978.54;;;5.82;100.00
70971;BME280;58632;51.718;19.446;2024-02-21T03:38:56;99974.98;;;5.80;100.00
70971;BME280;58632;51.718;19.446;2024-02-21T03:41:21;99977.35;;;5.81;100.00
70971;BME280;58632;51.718;19.446;2024-02-21T03:43:49;99977.64;;;5.84;100.00
70971;BME280;58632;51.718;19.446;2024-02-21T03:46:15;99978.46;;;5.84;100.00
70971;BME280;58632;51.718;19.446;2024-02-21T03:48:40;99977.64;;;5.83;100.00
70971;BME280;58632;51.718;19.446;2024-02-21T03:51:05;99975.42;;;5.82;100.00
70971;BME280;58632;51.718;19.446;2024-02-21T03:53:31;99974.70;;;5.79;100.00
70971;BME280;58632;51.718;19.446;2024-02-21T03:55:56;99977.31;;;5.79;100.00
70971;BME280;58632;51.718;19.446;2024-02-21T03:58:25;99977.25;;;5.80;100.00
70971;BME280;58632;51.718;19.446;2024-02-21T04:00:50;99973.15;;;5.82;100.00
70971;BME280;58632;51.718;19.446;2024-02-21T04:03:17;99969.38;;;5.85;100.00
70971;BME280;58632;51.718;19.446;2024-02-21T04:05:42;99969.15;;;5.85;100.00
70971;BME280;58632;51.718;19.446;2024-02-21T04:08:07;99969.74;;;5.85;100.00
70971;BME280;58632;51.718;19.446;2024-02-21T04:10:33;99966.03;;;5.87;100.00
70971;BME280;58632;51.718;19.446;2024-02-21T04:12:58;99961.54;;;5.87;100.00
70971;BME280;58632;51.718;19.446;2024-02-21T04:15:24;99961.59;;;5.86;100.00
70971;BME280;58632;51.718;19.446;2024-02-21T04:17:49;99958.71;;;5.80;100.00
70971;BME280;58632;51.718;19.446;2024-02-21T04:20:16;99963.29;;;5.79;100.00
70971;BME280;58632;51.718;19.446;2024-02-21T04:22:45;99954.19;;;5.81;100.00
70971;BME280;58632;51.718;19.446;2024-02-21T04:25:10;99951.31;;;5.82;100.00
70971;BME280;58632;51.718;19.446;2024-02-21T04:27:36;99951.98;;;5.85;100.00
70971;BME280;58632;51.718;19.446;2024-02-21T04:30:04;99949.02;;;5.88;100.00
70971;BME280;58632;51.718;19.446;2024-02-21T04:32:30;99947.27;;;5.88;100.00
70971;BME280;58632;51.718;19.446;2024-02-21T04:34:55;99947.58;;;5.86;100.00
70971;BME280;58632;51.718;19.446;2024-02-21T04:37:21;99948.09;;;5.82;100.00
70971;BME280;58632;51.718;19.446;2024-02-21T04:39:46;99948.42;;;5.82;100.00
70971;BME280;58632;51.718;19.446;2024-02-21T04:42:12;99946.17;;;5.85;100.00
70971;BME280;58632;51.718;19.446;2024-02-21T04:44:37;99943.64;;;5.82;100.00
70971;BME280;58632;51.718;19.446;2024-02-21T04:47:03;99940.83;;;5.81;100.00
70971;BME280;58632;51.718;19.446;2024-02-21T04:49:29;99941.44;;;5.79;100.00
70971;BME280;58632;51.718;19.446;2024-02-21T04:51:54;99938.64;;;5.76;100.00
70971;BME280;58632;51.718;19.446;2024-02-21T04:54:20;99934.11;;;5.71;100.00
70971;BME280;58632;51.718;19.446;2024-02-21T04:56:45;99931.91;;;5.70;100.00
70971;BME280;58632;51.718;19.446;2024-02-21T04:59:10;99925.06;;;5.70;100.00
70971;BME280;58632;51.718;19.446;2024-02-21T05:01:36;99917.36;;;5.67;100.00
70971;BME280;58632;51.718;19.446;2024-02-21T05:04:01;99909.08;;;5.65;100.00
70971;BME280;58632;51.718;19.446;2024-02-21T05:06:27;99910.15;;;5.66;100.00
70971;BME280;58632;51.718;19.446;2024-02-21T05:08:56;99916.33;;;5.67;100.00
70971;BME280;58632;51.718;19.446;2024-02-21T05:11:23;99916.09;;;5.65;100.00
70971;BME280;58632;51.718;19.446;2024-02-21T05:13:48;99918.64;;;5.64;100.00
70971;BME280;58632;51.718;19.446;2024-02-21T05:16:14;99925.30;;;5.62;100.00
70971;BME280;58632;51.718;19.446;2024-02-21T05:18:40;99927.64;;;5.60;100.00
70971;BME280;58632;51.718;19.446;2024-02-21T05:21:05;99928.62;;;5.60;100.00
70971;BME280;58632;51.718;19.446;2024-02-21T05:23:31;99926.36;;;5.64;100.00
70971;BME280;58632;51.718;19.446;2024-02-21T05:25:59;99927.20;;;5.67;100.00
70971;BME280;58632;51.718;19.446;2024-02-21T05:28:24;99923.04;;;5.71;100.00
70971;BME280;58632;51.718;19.446;2024-02-21T05:30:50;99922.61;;;5.76;100.00
70971;BME280;58632;51.718;19.446;2024-02-21T05:33:15;99924.20;;;5.80;100.00
70971;BME280;58632;51.718;19.446;2024-02-21T05:35:46;99922.95;;;5.80;100.00
70971;BME280;58632;51.718;19.446;2024-02-21T05:38:12;99922.54;;;5.83;100.00
70971;BME280;58632;51.718;19.446;2024-02-21T05:40:40;99920.75;;;5.82;100.00
70971;BME280;58632;51.718;19.446;2024-02-21T05:43:06;99918.14;;;5.83;100.00
70971;BME280;58632;51.718;19.446;2024-02-21T05:45:32;99915.96;;;5.83;100.00
70971;BME280;58632;51.718;19.446;2024-02-21T05:47:57;99917.67;;;5.81;100.00
70971;BME280;58632;51.718;19.446;2024-02-21T05:50:23;99922.80;;;5.79;100.00
70971;BME280;58632;51.718;19.446;2024-02-21T05:52:52;99922.91;;;5.78;100.00
70971;BME280;58632;51.718;19.446;2024-02-21T05:55:17;99919.52;;;5.81;100.00
70971;BME280;58632;51.718;19.446;2024-02-21T05:57:43;99918.62;;;5.84;100.00
70971;BME280;58632;51.718;19.446;2024-02-21T06:00:08;99918.53;;;5.87;100.00
70971;BME280;58632;51.718;19.446;2024-02-21T06:02:34;99914.94;;;5.88;100.00
70971;BME280;58632;51.718;19.446;2024-02-21T06:05:02;99913.65;;;5.92;100.00
70971;BME280;58632;51.718;19.446;2024-02-21T06:07:27;99915.65;;;5.96;100.00
70971;BME280;58632;51.718;19.446;2024-02-21T06:09:52;99913.07;;;5.99;100.00
70971;BME280;58632;51.718;19.446;2024-02-21T06:12:20;99913.84;;;5.97;100.00
70971;BME280;58632;51.718;19.446;2024-02-21T06:14:46;99915.02;;;5.99;100.00
70971;BME280;58632;51.718;19.446;2024-02-21T06:17:14;99911.79;;;6.01;100.00
70971;BME280;58632;51.718;19.446;2024-02-21T06:19:40;99909.94;;;6.01;100.00
70971;BME280;58632;51.718;19.446;2024-02-21T06:22:05;99908.36;;;6.01;100.00
70971;BME280;58632;51.718;19.446;2024-02-21T06:24:33;99912.14;;;5.99;100.00
70971;BME280;58632;51.718;19.446;2024-02-21T06:26:58;99910.98;;;5.96;100.00
70971;BME280;58632;51.718;19.446;2024-02-21T06:29:24;99907.42;;;5.98;100.00
70971;BME280;58632;51.718;19.446;2024-02-21T06:31:49;99908.55;;;5.99;100.00
70971;BME280;58632;51.718;19.446;2024-02-21T06:34:14;99909.30;;;6.00;100.00
70971;BME280;58632;51.718;19.446;2024-02-21T06:36:40;99908.66;;;6.05;100.00
70971;BME280;58632;51.718;19.446;2024-02-21T06:39:05;99904.15;;;6.08;100.00
70971;BME280;58632;51.718;19.446;2024-02-21T06:41:32;99899.83;;;6.06;100.00
70971;BME280;58632;51.718;19.446;2024-02-21T06:43:59;99896.29;;;6.05;100.00
70971;BME280;58632;51.718;19.446;2024-02-21T06:46:28;99892.29;;;6.05;100.00
70971;BME280;58632;51.718;19.446;2024-02-21T06:48:53;99893.34;;;6.02;100.00
70971;BME280;58632;51.718;19.446;2024-02-21T06:51:19;99896.56;;;6.06;100.00
70971;BME280;58632;51.718;19.446;2024-02-21T06:53:45;99897.52;;;6.13;100.00
70971;BME280;58632;51.718;19.446;2024-02-21T06:56:12;99896.06;;;6.16;100.00
70971;BME280;58632;51.718;19.446;2024-02-21T06:58:38;99894.97;;;6.18;100.00
70971;BME280;58632;51.718;19.446;2024-02-21T07:01:03;99897.14;;;6.21;100.00
70971;BME280;58632;51.718;19.446;2024-02-21T07:03:29;99900.30;;;6.27;100.00
70971;BME280;58632;51.718;19.446;2024-02-21T07:05:54;99897.36;;;6.27;100.00
70971;BME280;58632;51.718;19.446;2024-02-21T07:08:24;99893.83;;;6.26;100.00
70971;BME280;58632;51.718;19.446;2024-02-21T07:10:50;99895.77;;;6.27;100.00
70971;BME280;58632;51.718;19.446;2024-02-21T07:13:15;99893.55;;;6.31;100.00
70971;BME280;58632;51.718;19.446;2024-02-21T07:15:41;99891.44;;;6.35;100.00
70971;BME280;58632;51.718;19.446;2024-02-21T07:18:07;99888.23;;;6.35;100.00
70971;BME280;58632;51.718;19.446;2024-02-21T07:20:34;99887.67;;;6.35;100.00
70971;BME280;58632;51.718;19.446;2024-02-21T07:23:02;99887.23;;;6.36;100.00
70971;BME280;58632;51.718;19.446;2024-02-21T07:25:28;99885.98;;;6.36;100.00
70971;BME280;58632;51.718;19.446;2024-02-21T07:27:53;99888.44;;;6.43;100.00
70971;BME280;58632;51.718;19.446;2024-02-21T07:30:19;99888.35;;;6.51;100.00
70971;BME280;58632;51.718;19.446;2024-02-21T07:32:44;99885.63;;;6.59;100.00
70971;BME280;58632;51.718;19.446;2024-02-21T07:35:10;99879.66;;;6.66;100.00
70971;BME280;58632;51.718;19.446;2024-02-21T07:37:37;99878.36;;;6.70;100.00
70971;BME280;58632;51.718;19.446;2024-02-21T07:40:23;99868.63;;;6.76;100.00
70971;BME280;58632;51.718;19.446;2024-02-21T07:42:48;99863.05;;;6.85;100.00
70971;BME280;58632;51.718;19.446;2024-02-21T07:45:14;99860.91;;;6.97;100.00
70971;BME280;58632;51.718;19.446;2024-02-21T07:47:39;99863.95;;;7.18;100.00
70971;BME280;58632;51.718;19.446;2024-02-21T07:50:05;99864.61;;;7.31;100.00
70971;BME280;58632;51.718;19.446;2024-02-21T07:52:31;99863.70;;;7.37;100.00
70971;BME280;58632;51.718;19.446;2024-02-21T07:54:56;99864.40;;;7.44;100.00
70971;BME280;58632;51.718;19.446;2024-02-21T07:57:22;99861.55;;;7.51;100.00
70971;BME280;58632;51.718;19.446;2024-02-21T07:59:50;99859.39;;;7.59;100.00
70971;BME280;58632;51.718;19.446;2024-02-21T08:02:15;99857.42;;;7.69;100.00
70971;BME280;58632;51.718;19.446;2024-02-21T08:04:41;99856.73;;;7.77;100.00
70971;BME280;58632;51.718;19.446;2024-02-21T08:07:07;99853.97;;;7.84;100.00
70971;BME280;58632;51.718;19.446;2024-02-21T08:09:32;99855.02;;;7.86;100.00
70971;BME280;58632;51.718;19.446;2024-02-21T08:11:57;99853.59;;;7.90;100.00
70971;BME280;58632;51.718;19.446;2024-02-21T08:14:23;99851.95;;;7.98;100.00
70971;BME280;58632;51.718;19.446;2024-02-21T08:16:50;99852.50;;;8.09;100.00
70971;BME280;58632;51.718;19.446;2024-02-21T08:19:18;99845.39;;;8.16;100.00
70971;BME280;58632;51.718;19.446;2024-02-21T08:21:43;99845.86;;;8.14;100.00
70971;BME280;58632;51.718;19.446;2024-02-21T08:24:12;99841.86;;;8.14;100.00
70971;BME280;58632;51.718;19.446;2024-02-21T08:26:39;99839.27;;;8.11;100.00
70971;BME280;58632;51.718;19.446;2024-02-21T08:29:05;99836.92;;;8.05;100.00
70971;BME280;58632;51.718;19.446;2024-02-21T08:31:30;99834.61;;;8.01;100.00
70971;BME280;58632;51.718;19.446;2024-02-21T08:33:57;99831.66;;;7.96;100.00
70971;BME280;58632;51.718;19.446;2024-02-21T08:36:27;99829.19;;;7.88;100.00
70971;BME280;58632;51.718;19.446;2024-02-21T08:38:55;99821.73;;;7.87;100.00
70971;BME280;58632;51.718;19.446;2024-02-21T08:41:21;99821.73;;;7.84;100.00
70971;BME280;58632;51.718;19.446;2024-02-21T08:43:48;99821.48;;;7.89;100.00
70971;BME280;58632;51.718;19.446;2024-02-21T08:46:14;99817.44;;;7.90;100.00
70971;BME280;58632;51.718;19.446;2024-02-21T08:48:39;99818.52;;;7.93;100.00
70971;BME280;58632;51.718;19.446;2024-02-21T08:51:05;99815.82;;;8.00;100.00
70971;BME280;58632;51.718;19.446;2024-02-21T08:53:31;99814.04;;;8.07;100.00
70971;BME280;58632;51.718;19.446;2024-02-21T08:55:56;99813.52;;;8.13;100.00
70971;BME280;58632;51.718;19.446;2024-02-21T08:58:22;99808.85;;;8.23;100.00
70971;BME280;58632;51.718;19.446;2024-02-21T09:00:49;99816.00;;;8.38;100.00
70971;BME280;58632;51.718;19.446;2024-02-21T09:03:14;99816.48;;;8.47;100.00
70971;BME280;58632;51.718;19.446;2024-02-21T09:05:40;99820.48;;;8.49;100.00
70971;BME280;58632;51.718;19.446;2024-02-21T09:08:06;99815.05;;;8.51;100.00
70971;BME280;58632;51.718;19.446;2024-02-21T09:10:31;99811.82;;;8.53;100.00
70971;BME280;58632;51.718;19.446;2024-02-21T09:12:57;99796.77;;;8.53;100.00
70971;BME280;58632;51.718;19.446;2024-02-21T09:15:22;99788.26;;;8.57;100.00
70971;BME280;58632;51.718;19.446;2024-02-21T09:17:49;99789.09;;;8.65;100.00
70971;BME280;58632;51.718;19.446;2024-02-21T09:20:17;99795.34;;;8.83;100.00
70971;BME280;58632;51.718;19.446;2024-02-21T09:22:43;99797.94;;;9.07;100.00
70971;BME280;58632;51.718;19.446;2024-02-21T09:25:11;99798.13;;;9.25;100.00
70971;BME280;58632;51.718;19.446;2024-02-21T09:27:37;99799.85;;;9.45;100.00
70971;BME280;58632;51.718;19.446;2024-02-21T09:30:03;99801.34;;;9.65;100.00
70971;BME280;58632;51.718;19.446;2024-02-21T09:32:29;99799.65;;;9.77;100.00
70971;BME280;58632;51.718;19.446;2024-02-21T09:34:55;99798.25;;;9.80;100.00
70971;BME280;58632;51.718;19.446;2024-02-21T09:37:20;99796.77;;;9.79;100.00
70971;BME280;58632;51.718;19.446;2024-02-21T09:39:46;99797.89;;;9.77;100.00
70971;BME280;58632;51.718;19.446;2024-02-21T09:42:13;99797.89;;;9.71;100.00
70971;BME280;58632;51.718;19.446;2024-02-21T09:44:42;99798.41;;;9.62;100.00
70971;BME280;58632;51.718;19.446;2024-02-21T09:47:15;99795.45;;;9.59;100.00
70971;BME280;58632;51.718;19.446;2024-02-21T09:49:42;99790.39;;;9.60;100.00
70971;BME280;58632;51.718;19.446;2024-02-21T09:52:11;99785.80;;;9.62;100.00
70971;BME280;58632;51.718;19.446;2024-02-21T09:54:38;99787.73;;;9.56;100.00
70971;BME280;58632;51.718;19.446;2024-02-21T09:57:06;99787.64;;;9.58;100.00
70971;BME280;58632;51.718;19.446;2024-02-21T09:59:32;99785.04;;;9.65;100.00
70971;BME280;58632;51.718;19.446;2024-02-21T10:01:57;99783.97;;;9.62;100.00
70971;BME280;58632;51.718;19.446;2024-02-21T10:04:25;99780.28;;;9.57;100.00
70971;BME280;58632;51.718;19.446;2024-02-21T10:06:51;99780.13;;;9.59;100.00
70971;BME280;58632;51.718;19.446;2024-02-21T10:09:20;99781.11;;;9.65;100.00
70971;BME280;58632;51.718;19.446;2024-02-21T10:11:46;99777.04;;;9.78;100.00
70971;BME280;58632;51.718;19.446;2024-02-21T10:14:11;99772.69;;;10.03;100.00
70971;BME280;58632;51.718;19.446;2024-02-21T10:16:36;99772.02;;;10.30;100.00
70971;BME280;58632;51.718;19.446;2024-02-21T10:19:02;99766.59;;;10.49;100.00
70971;BME280;58632;51.718;19.446;2024-02-21T10:21:28;99765.13;;;10.58;100.00
70971;BME280;58632;51.718;19.446;2024-02-21T10:23:54;99762.20;;;10.67;100.00
70971;BME280;58632;51.718;19.446;2024-02-21T10:26:20;99761.36;;;10.69;100.00
70971;BME280;58632;51.718;19.446;2024-02-21T10:28:46;99759.09;;;10.71;100.00
70971;BME280;58632;51.718;19.446;2024-02-21T10:31:22;99760.39;;;10.73;100.00
70971;BME280;58632;51.718;19.446;2024-02-21T10:34:00;99760.44;;;10.84;100.00
70971;BME280;58632;51.718;19.446;2024-02-21T10:36:28;99756.42;;;10.94;100.00
70971;BME280;58632;51.718;19.446;2024-02-21T10:38:54;99758.31;;;11.05;100.00
70971;BME280;58632;51.718;19.446;2024-02-21T10:41:20;99755.63;;;11.06;100.00
70971;BME280;58632;51.718;19.446;2024-02-21T10:43:53;99757.71;;;10.96;100.00
70971;BME280;58632;51.718;19.446;2024-02-21T10:46:23;99753.24;;;10.89;100.00
70971;BME280;58632;51.718;19.446;2024-02-21T10:48:54;99756.13;;;10.80;100.00
70971;BME280;58632;51.718;19.446;2024-02-21T10:51:23;99752.52;;;10.73;100.00
70971;BME280;58632;51.718;19.446;2024-02-21T10:56:38;99743.99;;;10.48;100.00
70971;BME280;58632;51.718;19.446;2024-02-21T10:59:05;99743.32;;;10.38;100.00
70971;BME280;58632;51.718;19.446;2024-02-21T11:01:30;99742.23;;;10.27;100.00
70971;BME280;58632;51.718;19.446;2024-02-21T11:04:07;99740.92;;;10.10;100.00
70971;BME280;58632;51.718;19.446;2024-02-21T11:06:40;99741.11;;;9.94;100.00
70971;BME280;58632;51.718;19.446;2024-02-21T11:09:06;99739.20;;;9.77;100.00
70971;BME280;58632;51.718;19.446;2024-02-21T11:11:35;99737.39;;;9.64;100.00
70971;BME280;58632;51.718;19.446;2024-02-21T11:14:10;99734.38;;;9.56;100.00
70971;BME280;58632;51.718;19.446;2024-02-21T11:16:40;99732.30;;;9.54;100.00
70971;BME280;58632;51.718;19.446;2024-02-21T11:19:25;99723.91;;;9.55;100.00
70971;BME280;58632;51.718;19.446;2024-02-21T11:21:51;99724.36;;;9.55;100.00
70971;BME280;58632;51.718;19.446;2024-02-21T11:24:29;99720.25;;;9.55;100.00
70971;BME280;58632;51.718;19.446;2024-02-21T11:26:55;99720.08;;;9.58;100.00
70971;BME280;58632;51.718;19.446;2024-02-21T11:29:24;99714.20;;;9.59;100.00
70971;BME280;58632;51.718;19.446;2024-02-21T11:31:50;99711.58;;;9.68;100.00
70971;BME280;58632;51.718;19.446;2024-02-21T11:34:17;99702.45;;;9.85;100.00
70971;BME280;58632;51.718;19.446;2024-02-21T11:36:49;99700.02;;;9.95;100.00
70971;BME280;58632;51.718;19.446;2024-02-21T11:39:25;99695.35;;;9.99;100.00
70971;BME280;58632;51.718;19.446;2024-02-21T11:42:03;99699.34;;;10.01;100.00
70971;BME280;58632;51.718;19.446;2024-02-21T11:44:29;99696.45;;;9.97;100.00
70971;BME280;58632;51.718;19.446;2024-02-21T11:46:54;99697.06;;;10.00;100.00
70971;BME280;58632;51.718;19.446;2024-02-21T11:49:20;99693.91;;;10.00;100.00
70971;BME280;58632;51.718;19.446;2024-02-21T11:51:46;99695.34;;;9.90;100.00
70971;BME280;58632;51.718;19.446;2024-02-21T11:54:11;99692.18;;;9.83;100.00
70971;BME280;58632;51.718;19.446;2024-02-21T11:56:38;99687.19;;;9.68;100.00
70971;BME280;58632;51.718;19.446;2024-02-21T11:59:04;99689.36;;;9.61;100.00
70971;BME280;58632;51.718;19.446;2024-02-21T12:01:31;99686.76;;;9.57;100.00
70971;BME280;58632;51.718;19.446;2024-02-21T12:03:57;99679.02;;;9.52;100.00
70971;BME280;58632;51.718;19.446;2024-02-21T12:06:22;99678.34;;;9.49;100.00
70971;BME280;58632;51.718;19.446;2024-02-21T12:08:47;99673.11;;;9.42;100.00
70971;BME280;58632;51.718;19.446;2024-02-21T12:11:19;99669.27;;;9.36;100.00
70971;BME280;58632;51.718;19.446;2024-02-21T12:13:46;99669.02;;;9.30;100.00
70971;BME280;58632;51.718;19.446;2024-02-21T12:16:14;99667.19;;;9.25;100.00
70971;BME280;58632;51.718;19.446;2024-02-21T12:18:40;99662.64;;;9.28;100.00
70971;BME280;58632;51.718;19.446;2024-02-21T12:21:05;99654.40;;;9.33;100.00
70971;BME280;58632;51.718;19.446;2024-02-21T12:23:31;99655.26;;;9.43;100.00
70971;BME280;58632;51.718;19.446;2024-02-21T12:25:59;99653.02;;;9.45;100.00
70971;BME280;58632;51.718;19.446;2024-02-21T12:28:24;99650.08;;;9.49;100.00
70971;BME280;58632;51.718;19.446;2024-02-21T12:30:51;99649.40;;;9.55;100.00
70971;BME280;58632;51.718;19.446;2024-02-21T12:33:18;99651.02;;;9.61;100.00
70971;BME280;58632;51.718;19.446;2024-02-21T12:35:44;99645.66;;;9.62;100.00
70971;BME280;58632;51.718;19.446;2024-02-21T12:38:10;99637.98;;;9.66;100.00
70971;BME280;58632;51.718;19.446;2024-02-21T12:40:36;99635.79;;;9.66;100.00
70971;BME280;58632;51.718;19.446;2024-02-21T12:43:01;99632.66;;;9.64;100.00
70971;BME280;58632;51.718;19.446;2024-02-21T12:45:30;99625.46;;;9.62;100.00
70971;BME280;58632;51.718;19.446;2024-02-21T12:47:55;99617.36;;;9.61;100.00